Racecast

Tristen Elder

Greeley West (CO) · 12 · NCACCO D5A5A · Compare head to head

Athlete rating 108.8 2019 XC season
Best race 110.2 XC
Races 40
Seasons 4 2016 — 2019

RankedNation #66293·CO #1396·CO D5A #841·NCAC #18·Team #9 ?

Speed rating — all races

Cross Country

XC speed rating

2019 XC 106.3

Greeley West (CO) · Grade 12

Date Meet Event Result Place Rating Difficulty PR/SR Flags
2019-11-23 Grande Sports Complex 5000m 18:46.4 185th · 5th on team 110.2 +0.004 ★PR ★CR ★R SR CSR RSR
2019-10-17 Spring Canyon Park 5000m 20:38 80th · 6th on team 104.4 +0.037
2019-10-11 Spring Canyon Park 5000m 19:53 79th · 5th on team 108.2 +0.037 ★CR SR CSR
2019-09-21 Lyons Middle/High School 5000m 20:01 213th · 6th on team 108.8 +0.046 ★CR SR CSR RSR
2019-09-07 Heritage High School 5000m 20:15.7 155th · 5th on team 102.1 -0.001 SR CSR
2019-08-23 Norris Penrose Event Center 5000m 21:14.5 99th · 5th on team 104.1 +0.067 ★CR SR CSR RSR

2018 XC 105.7

Greeley West (CO) · Grade 11

Date Meet Event Result Place Rating Difficulty PR/SR Flags
2018-11-17 Grande Sports Complex 5000m 19:07.1 278th · 5th on team 109.0 +0.004 PR CR R SR CSR RSR
2018-10-18 Adams County Regional Park 5000m 20:38.3 83rd · 7th on team 105.7 +0.048 ★CR CSR
2018-10-05 Northwest Open Space 5000m 19:49.2 213th · 5th on team 107.3 +0.020 PR ★CR R SR CSR RSR
2018-09-29 Mead High School 5000m 19:57.7 70th · 5th on team 105.4 +0.011 PR ★CR R SR CSR RSR
2018-09-08 Heritage High School 5000m 20:07.6 118th · 6th on team 102.8 -0.001 PR ★CR SR CSR
2018-08-24 Norris Penrose Event Center 5000m 21:30.5 119th · 5th on team 103.8 +0.067 CR R SR CSR RSR

2017 XC 99.3

Greeley West (CO) · Grade 10

Date Meet Event Result Place Rating Difficulty PR/SR Flags
2017-10-19 Viele Lake XC Course 5000m 21:23 94th · 6th on team 100.3 +0.042 ★CR CSR
2017-09-30 Island Grove Regional Park 5000m 20:22.1 94th · 5th on team 102.1 +0.003 PR ★CR R SR CSR RSR
2017-09-08 Heritage High School 5000m 21:31 149th · 6th on team 95.5 -0.001 PR CR R SR CSR RSR

2016 XC

Greeley West (CO) · Grade 9

Date Meet Event Result Place Rating Difficulty PR/SR Flags
2016-10-15 Wiggins High School 5000m 23:47 48th · 7th on team -0.002 PR ★CR SR CSR
2016-09-23 Clement Park 5000m 27:19 195th · 9th on team +0.030 PR ★CR SR CSR

Track & Field

TF speed rating

2019 TF 106.0

Greeley West (CO) · Grade 11

Date Meet Event Result Place Rating Difficulty PR/SR Flags
2019-05-10 John Martin Invitational 3200m 11:55.59 22nd · 3rd on team 105.3 -0.012
2019-04-13 Mountain Range Mustang Track & Field Invitational 1600m 5:27.69 37th · 2nd on team 107.1 -0.006
2019-04-13 Mountain Range Mustang Track & Field Invitational 3200m 11:54.14 35th · 2nd on team 106.0 -0.006
2019-04-06 David S. D'Evelyn Invitational 1600m 5:21.32 32nd · 1st on team 109.0 -0.011 ★PR SR RSR
2019-04-06 David S. D'Evelyn Invitational 3200m 11:46.64 24th · 1st on team 107.5 -0.011 ★PR SR
2019-03-30 Altitude Running Invitational 3200m 11:56.86 33rd · 1st on team 105.7 -0.012 PR SR RSR
2019-03-30 Altitude Running Invitational 1600m 5:26.76 50th · 3rd on team 107.2 -0.012 PR SR RSR
2019-03-23 Broomfield Shootout 1600m 5:33.03 70th · 1st on team 105.3 -0.012 PR SR RSR
2019-03-08 City of Greeley Championships 800m 2:34.5 15th · 7th on team 100.9 -0.011 ★PR SR RSR

2018 TF 98.9

Greeley West (CO) · Grade 10

Date Meet Event Result Place Rating Difficulty PR/SR Flags
2018-05-10 John Martin Invitational 1600m 5:45.58 30th · 1st on team 101.4 -0.012 RSR
2018-05-10 John Martin Invitational 800m 2:38.5 27th · 2nd on team 98.3 -0.012
2018-04-28 Weld County Championships 800m 2:35.3 33rd · 2nd on team 99.9 -0.014 PR SR
2018-04-28 Weld County Championships 3200m 12:41.87 23rd · 1st on team 99.2 -0.014 PR SR
2018-04-23 Platte Valley Bronco Stampede 1600m 6:08.81 39th · 3rd on team 94.8 -0.010
2018-04-18 Greeley Central Weld County JV Meet #2 800m 2:35.59 14th · 4th on team 100.3 -0.011 PR SR
2018-04-16 Greeley Twilight Invitational 1600m 5:45.21 23rd · 2nd on team 101.3 -0.011 PR SR RSR
2018-04-11 Greeley West Weld County JV Meet #2 lj 10-05.00 -0.011
2018-04-11 Greeley West Weld County JV Meet #2 800m 2:36.02 17th · 2nd on team 100.0 -0.011 PR SR RSR
2018-04-07 David S. D'Evelyn Invitational 3200m 12:42.75 34th · 1st on team 99.1 -0.011 PR SR
2018-03-24 Palmer Terror Invitational 3200m 12:53.86 22nd · 2nd on team 99.2 +0.004 PR SR RSR
2018-03-21 Windsor Weld County JV Meet 1600m 5:53.7 11th · 2nd on team 99.1 -0.008 PR SR RSR
2018-03-08 City of Greeley (and Johnstown) Championships 1600m 6:02.09 23rd · 6th on team 96.5 -0.011 PR SR RSR
2018-03-08 City of Greeley (and Johnstown) Championships 3200m 13:09.01 8th · 1st on team 96.0 -0.011 PR SR